createdAt,value
2023-03-23T00:00:16.688Z,1.60
2023-03-23T00:01:16.658Z,1.50
2023-03-23T00:02:16.670Z,1.40
2023-03-23T00:03:16.632Z,1.50
2023-03-23T00:04:16.623Z,1.40
2023-03-23T00:05:16.648Z,1.40
2023-03-23T00:06:16.582Z,1.50
2023-03-23T00:07:16.572Z,1.30
2023-03-23T00:08:16.590Z,1.30
2023-03-23T00:09:16.556Z,1.50
2023-03-23T00:10:16.538Z,1.40
2023-03-23T00:11:16.515Z,1.40
2023-03-23T00:12:16.527Z,1.50
2023-03-23T00:13:16.513Z,1.80
2023-03-23T00:14:16.478Z,1.50
2023-03-23T00:15:16.511Z,1.40
2023-03-23T00:16:16.449Z,1.40
2023-03-23T00:17:16.436Z,1.50
2023-03-23T00:18:16.448Z,1.40
2023-03-23T00:19:16.446Z,1.50
2023-03-23T00:20:16.441Z,1.50
2023-03-23T00:21:16.412Z,1.20
2023-03-23T00:22:16.377Z,1.60
2023-03-23T00:23:16.358Z,1.40
2023-03-23T00:24:16.348Z,1.50
2023-03-23T00:25:16.411Z,1.50
2023-03-23T00:26:16.315Z,1.60
2023-03-23T00:27:16.301Z,1.40
2023-03-23T00:28:16.320Z,1.50
2023-03-23T00:29:16.272Z,1.50
2023-03-23T00:30:16.291Z,1.50
2023-03-23T00:31:16.274Z,1.60
2023-03-23T00:32:16.241Z,1.50
2023-03-23T00:33:16.234Z,1.70
2023-03-23T00:34:16.231Z,1.50
2023-03-23T00:35:16.352Z,1.90
2023-03-23T00:36:16.191Z,1.50
2023-03-23T00:37:16.220Z,1.80
2023-03-23T00:38:16.181Z,1.80
2023-03-23T00:39:16.149Z,1.60
2023-03-23T00:40:16.159Z,1.50
2023-03-23T00:41:16.123Z,1.40
2023-03-23T00:42:16.130Z,1.60
2023-03-23T00:43:16.154Z,1.40
2023-03-23T00:44:16.076Z,1.60
2023-03-23T00:45:16.080Z,1.50
2023-03-23T00:46:16.078Z,1.70
2023-03-23T00:47:16.057Z,1.60
2023-03-23T00:48:16.068Z,1.30
2023-03-23T00:49:16.027Z,1.40
2023-03-23T00:50:16.336Z,1.50
2023-03-23T00:51:15.986Z,1.50
2023-03-23T00:52:16.028Z,1.50
2023-03-23T00:53:16.004Z,1.70
2023-03-23T00:54:15.955Z,1.70
2023-03-23T00:55:15.956Z,1.40
2023-03-23T00:56:15.957Z,1.30
2023-03-23T00:57:16.000Z,1.40
2023-03-23T00:58:15.924Z,1.40
2023-03-23T00:59:15.936Z,1.40
2023-03-23T01:00:15.894Z,1.20
2023-03-23T01:01:15.893Z,1.30
2023-03-23T01:02:15.855Z,1.30
2023-03-23T01:03:15.869Z,1.50
2023-03-23T01:04:15.854Z,1.50
2023-03-23T01:05:15.807Z,1.40
2023-03-23T01:06:15.814Z,1.40
2023-03-23T01:07:15.806Z,1.30
2023-03-23T01:08:15.794Z,1.20
2023-03-23T01:09:15.755Z,1.30
2023-03-23T01:10:15.780Z,1.40
2023-03-23T01:11:15.731Z,1.40
2023-03-23T01:12:15.707Z,1.40
2023-03-23T01:13:15.751Z,1.50
2023-03-23T01:14:15.696Z,1.50
2023-03-23T01:15:15.695Z,1.50
2023-03-23T01:16:15.666Z,1.60
2023-03-23T01:17:15.642Z,1.50
2023-03-23T01:18:15.634Z,1.30
2023-03-23T01:19:15.623Z,1.70
2023-03-23T01:20:15.626Z,1.70
2023-03-23T01:21:15.595Z,1.40
2023-03-23T01:22:15.612Z,1.50
2023-03-23T01:23:15.576Z,1.30
2023-03-23T01:24:15.572Z,1.40
2023-03-23T01:25:15.558Z,1.40
2023-03-23T01:26:15.533Z,1.50
2023-03-23T01:27:15.519Z,1.50
2023-03-23T01:28:15.533Z,1.30
2023-03-23T01:29:15.512Z,1.40
2023-03-23T01:30:15.471Z,1.40
2023-03-23T01:31:15.489Z,1.60
2023-03-23T01:32:15.453Z,1.90
2023-03-23T01:33:15.432Z,1.70
2023-03-23T01:34:15.479Z,1.30
2023-03-23T01:35:15.399Z,1.70
2023-03-23T01:36:15.397Z,1.50
2023-03-23T01:37:15.417Z,1.50
2023-03-23T01:38:15.369Z,1.60
2023-03-23T01:39:15.386Z,1.30
2023-03-23T01:40:15.366Z,1.50
2023-03-23T01:41:15.335Z,1.70
2023-03-23T01:42:15.309Z,1.50
2023-03-23T01:43:15.320Z,1.30
2023-03-23T01:44:15.294Z,1.40
2023-03-23T01:45:15.292Z,1.50
2023-03-23T01:46:15.305Z,1.50
2023-03-23T01:47:15.252Z,1.90
2023-03-23T01:48:15.242Z,1.50
2023-03-23T01:49:15.284Z,1.40
2023-03-23T01:50:15.223Z,1.70
2023-03-23T01:51:15.210Z,1.50
2023-03-23T01:52:15.211Z,1.40
2023-03-23T01:53:15.169Z,1.50
2023-03-23T01:54:15.162Z,1.80
2023-03-23T01:55:15.169Z,1.60
2023-03-23T01:56:15.156Z,1.60
2023-03-23T01:57:15.125Z,1.80
2023-03-23T01:58:15.146Z,1.60
2023-03-23T01:59:15.109Z,1.60
2023-03-23T02:00:15.085Z,1.70
2023-03-23T02:01:15.090Z,2.00
2023-03-23T02:02:15.054Z,1.60
2023-03-23T02:03:17.137Z,1.80
2023-03-23T02:04:15.047Z,1.60
2023-03-23T02:05:15.036Z,1.60
2023-03-23T02:06:15.004Z,1.90
2023-03-23T02:07:15.014Z,1.60
2023-03-23T02:08:14.972Z,1.70
2023-03-23T02:09:14.973Z,1.70
2023-03-23T02:10:15.028Z,1.40
2023-03-23T02:11:22.181Z,1.40
2023-03-23T02:12:14.950Z,1.60
2023-03-23T02:13:14.907Z,1.50
2023-03-23T02:14:14.954Z,1.70
2023-03-23T02:15:14.914Z,1.50
2023-03-23T02:16:14.912Z,1.50
2023-03-23T02:17:14.882Z,1.50
2023-03-23T02:18:14.869Z,1.50
2023-03-23T02:19:14.910Z,1.70
2023-03-23T02:20:14.819Z,1.80
2023-03-23T02:21:14.847Z,1.40
2023-03-23T02:22:14.787Z,1.70
2023-03-23T02:23:14.765Z,1.60
2023-03-23T02:24:14.770Z,1.60
2023-03-23T02:25:14.771Z,1.50
2023-03-23T02:26:14.753Z,1.40
2023-03-23T02:27:14.753Z,1.70
2023-03-23T02:28:14.762Z,1.70
2023-03-23T02:29:14.682Z,1.60
2023-03-23T02:30:14.709Z,1.70
2023-03-23T02:31:14.705Z,1.90
2023-03-23T02:32:14.667Z,1.70
2023-03-23T02:33:14.628Z,1.70
2023-03-23T02:34:14.655Z,1.70
2023-03-23T02:35:14.622Z,1.60
2023-03-23T02:36:14.601Z,1.70
2023-03-23T02:37:14.598Z,1.60
2023-03-23T02:38:14.580Z,1.80
2023-03-23T02:39:14.551Z,1.70
2023-03-23T02:40:14.575Z,1.80
2023-03-23T02:41:14.562Z,1.50
2023-03-23T02:42:15.501Z,1.60
2023-03-23T02:43:14.519Z,1.50
2023-03-23T02:44:14.505Z,1.60
2023-03-23T02:45:14.491Z,1.80
2023-03-23T02:46:14.485Z,1.80
2023-03-23T02:47:14.504Z,1.60
2023-03-23T02:48:14.438Z,1.90
2023-03-23T02:49:14.425Z,1.70
2023-03-23T02:50:14.445Z,1.90
2023-03-23T02:51:14.406Z,1.60
2023-03-23T02:52:14.386Z,1.70
2023-03-23T02:53:14.419Z,1.70
2023-03-23T02:54:14.354Z,1.90
2023-03-23T02:55:14.344Z,1.70
2023-03-23T02:56:14.421Z,1.60
2023-03-23T02:57:14.310Z,1.80
2023-03-23T02:58:14.295Z,1.60
2023-03-23T02:59:14.313Z,2.00
2023-03-23T03:00:14.274Z,1.80
2023-03-23T03:01:14.285Z,1.80
2023-03-23T03:02:14.305Z,1.70
2023-03-23T03:03:14.231Z,1.80
2023-03-23T03:04:14.228Z,2.00
2023-03-23T03:05:14.243Z,1.90
2023-03-23T03:06:14.193Z,2.00
2023-03-23T03:07:14.202Z,1.80
2023-03-23T03:08:14.177Z,1.90
2023-03-23T03:09:14.150Z,1.80
2023-03-23T03:10:17.314Z,1.70
2023-03-23T03:11:14.141Z,1.90
2023-03-23T03:12:14.134Z,2.00
2023-03-23T03:13:14.092Z,1.90
2023-03-23T03:14:14.106Z,1.90
2023-03-23T03:15:14.060Z,1.70
2023-03-23T03:16:14.060Z,2.10
2023-03-23T03:17:14.103Z,1.80
2023-03-23T03:18:14.038Z,1.70
2023-03-23T03:19:14.859Z,1.80
2023-03-23T03:20:14.077Z,2.10
2023-03-23T03:21:14.006Z,2.00
2023-03-23T03:22:13.997Z,1.90
2023-03-23T03:23:13.970Z,1.90
2023-03-23T03:24:13.974Z,2.10
2023-03-23T03:25:17.096Z,2.00
2023-03-23T03:26:13.950Z,2.20
2023-03-23T03:27:13.949Z,1.90
2023-03-23T03:28:13.902Z,1.90
2023-03-23T03:29:13.890Z,1.90
2023-03-23T03:30:13.873Z,1.90
2023-03-23T03:31:13.878Z,2.10
2023-03-23T03:32:13.845Z,2.20
2023-03-23T03:33:13.839Z,1.90
2023-03-23T03:34:13.821Z,2.00
2023-03-23T03:35:13.809Z,2.10
2023-03-23T03:36:13.932Z,2.10
2023-03-23T03:37:13.842Z,2.10
2023-03-23T03:38:13.775Z,2.10
2023-03-23T03:39:13.799Z,2.10
2023-03-23T03:40:13.746Z,2.30
2023-03-23T03:41:13.728Z,2.10
2023-03-23T03:42:13.760Z,1.90
2023-03-23T03:43:13.716Z,2.00
2023-03-23T03:44:13.695Z,1.90
2023-03-23T03:45:13.680Z,2.30
2023-03-23T03:46:13.671Z,2.10
2023-03-23T03:47:13.696Z,2.10
2023-03-23T03:48:13.636Z,2.00
2023-03-23T03:49:13.653Z,2.20
2023-03-23T03:50:13.631Z,2.20
2023-03-23T03:51:13.604Z,2.00
2023-03-23T03:52:13.654Z,2.10
2023-03-23T03:53:13.575Z,2.00
2023-03-23T03:54:13.559Z,2.30
2023-03-23T03:55:13.564Z,2.20
2023-03-23T03:56:13.543Z,2.10
2023-03-23T03:57:13.551Z,2.40
2023-03-23T03:58:13.509Z,2.40
2023-03-23T03:59:21.576Z,2.10
2023-03-23T04:00:13.479Z,2.30
2023-03-23T04:01:13.522Z,2.40
2023-03-23T04:02:13.495Z,2.10
2023-03-23T04:03:13.475Z,2.20
2023-03-23T04:04:13.457Z,2.50
2023-03-23T04:05:13.435Z,2.40
2023-03-23T04:06:13.423Z,2.30
2023-03-23T04:07:13.431Z,2.30
2023-03-23T04:08:13.369Z,2.10
2023-03-23T04:09:13.397Z,2.10
2023-03-23T04:10:13.343Z,2.40
2023-03-23T04:11:13.330Z,2.40
2023-03-23T04:12:13.348Z,2.20
2023-03-23T04:13:13.343Z,2.60
2023-03-23T04:14:13.312Z,2.30
2023-03-23T04:15:13.283Z,2.40
2023-03-23T04:16:13.297Z,2.50
2023-03-23T04:17:13.296Z,2.30
2023-03-23T04:18:13.243Z,2.50
2023-03-23T04:19:13.225Z,2.80
2023-03-23T04:20:13.211Z,2.30
2023-03-23T04:21:13.246Z,2.40
2023-03-23T04:22:13.205Z,2.10
2023-03-23T04:23:13.183Z,2.50
2023-03-23T04:24:23.054Z,2.80
2023-03-23T04:25:13.157Z,2.30
2023-03-23T04:26:13.181Z,2.30
2023-03-23T04:27:13.138Z,2.50
2023-03-23T04:28:13.109Z,2.40
2023-03-23T04:29:13.134Z,2.60
2023-03-23T04:30:13.081Z,2.40
2023-03-23T04:31:13.070Z,2.50
2023-03-23T04:32:13.073Z,2.70
2023-03-23T04:33:13.065Z,2.50
2023-03-23T04:34:13.035Z,3.00
2023-03-23T04:35:14.185Z,2.30
2023-03-23T04:36:13.046Z,2.40
2023-03-23T04:37:13.008Z,2.70
2023-03-23T04:38:12.997Z,2.60
2023-03-23T04:39:13.011Z,2.40
2023-03-23T04:40:12.953Z,2.50
2023-03-23T04:41:12.935Z,2.10
2023-03-23T04:42:12.948Z,2.60
2023-03-23T04:43:12.968Z,2.40
2023-03-23T04:44:12.890Z,2.60
2023-03-23T04:45:12.887Z,2.30
2023-03-23T04:46:12.946Z,2.30
2023-03-23T04:47:12.877Z,2.40
2023-03-23T04:48:12.868Z,2.40
2023-03-23T04:49:12.844Z,2.50
2023-03-23T04:50:12.892Z,2.50
2023-03-23T04:51:12.802Z,2.30
2023-03-23T04:52:12.849Z,2.40
2023-03-23T04:53:12.875Z,2.60
2023-03-23T04:54:12.775Z,2.30
2023-03-23T04:55:12.833Z,2.60
2023-03-23T04:56:12.753Z,2.70
2023-03-23T04:57:12.725Z,2.50
2023-03-23T04:58:12.773Z,2.60
2023-03-23T04:59:12.721Z,2.40
2023-03-23T05:00:12.674Z,2.50
2023-03-23T05:01:12.676Z,2.50
2023-03-23T05:02:14.507Z,2.50
2023-03-23T05:03:12.675Z,2.40
2023-03-23T05:04:12.633Z,2.30
2023-03-23T05:05:12.621Z,2.50
2023-03-23T05:06:12.603Z,2.50
2023-03-23T05:07:12.613Z,2.60
2023-03-23T05:08:12.601Z,2.70
2023-03-23T05:09:12.591Z,2.40
2023-03-23T05:10:12.498Z,2.30
2023-03-23T05:11:12.491Z,2.70
2023-03-23T05:12:12.469Z,2.20
2023-03-23T05:13:12.491Z,2.90
2023-03-23T05:14:12.441Z,2.70
2023-03-23T05:15:12.436Z,2.40
2023-03-23T05:16:12.415Z,2.60
2023-03-23T05:17:12.441Z,2.70
2023-03-23T05:18:12.389Z,2.40
2023-03-23T05:19:18.366Z,2.80
2023-03-23T05:20:12.355Z,2.90
2023-03-23T05:21:12.346Z,3.00
2023-03-23T05:22:12.355Z,2.90
2023-03-23T05:23:12.338Z,2.70
2023-03-23T05:24:12.375Z,2.90
2023-03-23T05:25:12.305Z,3.00
2023-03-23T05:26:12.315Z,3.00
2023-03-23T05:27:12.312Z,3.00
2023-03-23T05:28:12.280Z,2.90
2023-03-23T05:29:12.270Z,2.60
2023-03-23T05:30:12.229Z,2.80
2023-03-23T05:31:12.211Z,2.80
2023-03-23T05:32:12.232Z,2.80
2023-03-23T05:33:12.219Z,2.60
2023-03-23T05:34:12.176Z,2.40
2023-03-23T05:35:12.214Z,2.70
2023-03-23T05:36:12.171Z,2.90
2023-03-23T05:37:12.142Z,2.70
2023-03-23T05:38:12.133Z,3.10
2023-03-23T05:39:12.124Z,2.90
2023-03-23T05:40:12.108Z,2.70
2023-03-23T05:41:12.091Z,2.40
2023-03-23T05:42:12.088Z,2.70
2023-03-23T05:43:12.148Z,2.30
2023-03-23T05:44:12.065Z,2.50
2023-03-23T05:45:12.048Z,2.60
2023-03-23T05:46:12.016Z,2.70
2023-03-23T05:47:12.044Z,2.50
2023-03-23T05:48:12.006Z,2.40
2023-03-23T05:49:12.013Z,2.60
2023-03-23T05:50:11.971Z,2.20
2023-03-23T05:51:11.943Z,2.60
2023-03-23T05:52:11.937Z,2.50
2023-03-23T05:53:12.649Z,2.40
2023-03-23T05:54:11.921Z,2.10
2023-03-23T05:55:11.906Z,2.30
2023-03-23T05:56:11.904Z,2.20
2023-03-23T05:57:11.894Z,2.20
2023-03-23T05:58:11.878Z,2.00
2023-03-23T05:59:11.929Z,2.30
2023-03-23T06:00:11.822Z,2.10
2023-03-23T06:01:11.834Z,2.30
2023-03-23T06:02:11.804Z,1.90
2023-03-23T06:03:11.793Z,2.10
2023-03-23T06:04:11.817Z,2.20
2023-03-23T06:05:11.798Z,2.30
2023-03-23T06:06:11.782Z,2.20
2023-03-23T06:07:11.737Z,2.30
2023-03-23T06:08:11.752Z,2.20
2023-03-23T06:09:12.026Z,2.30
2023-03-23T06:10:11.700Z,2.50
2023-03-23T06:11:11.730Z,2.70
2023-03-23T06:12:11.687Z,2.70
2023-03-23T06:13:11.664Z,3.20
2023-03-23T06:14:12.350Z,4.00
2023-03-23T06:15:11.637Z,3.90
2023-03-23T06:16:11.624Z,3.60
2023-03-23T06:17:11.630Z,3.90
2023-03-23T06:18:11.610Z,3.90
2023-03-23T06:19:11.578Z,3.60
2023-03-23T06:20:11.590Z,4.60
2023-03-23T06:21:11.602Z,5.10
2023-03-23T06:22:11.532Z,4.70
2023-03-23T06:23:11.552Z,5.10
2023-03-23T06:24:11.523Z,5.70
2023-03-23T06:25:11.518Z,4.70
2023-03-23T06:26:11.487Z,4.60
2023-03-23T06:27:12.689Z,4.60
2023-03-23T06:28:11.486Z,4.90
2023-03-23T06:29:11.442Z,4.70
2023-03-23T06:30:11.463Z,4.40
2023-03-23T06:31:11.421Z,5.50
2023-03-23T06:32:11.415Z,4.40
2023-03-23T06:33:11.445Z,4.90
2023-03-23T06:34:11.392Z,4.80
2023-03-23T06:35:11.376Z,4.70
2023-03-23T06:36:11.451Z,4.70
2023-03-23T06:37:11.373Z,4.30
2023-03-23T06:38:11.342Z,4.10
2023-03-23T06:39:11.340Z,3.70
2023-03-23T06:40:11.352Z,3.90
2023-03-23T06:41:11.310Z,3.70
2023-03-23T06:42:11.307Z,3.30
2023-03-23T06:43:11.307Z,3.20
2023-03-23T06:44:11.262Z,3.80
2023-03-23T06:45:11.272Z,3.90
2023-03-23T06:46:11.257Z,3.50
2023-03-23T06:47:11.214Z,2.90
2023-03-23T06:48:11.219Z,2.60
2023-03-23T06:49:11.246Z,3.00
2023-03-23T06:50:11.172Z,2.70
2023-03-23T06:51:11.184Z,2.80
2023-03-23T06:52:11.146Z,2.60
2023-03-23T06:53:11.135Z,2.60
2023-03-23T06:54:11.151Z,2.70
2023-03-23T06:55:11.122Z,2.50
2023-03-23T06:56:11.107Z,2.20
2023-03-23T06:57:11.105Z,2.60
2023-03-23T06:58:11.080Z,2.40
2023-03-23T06:59:11.182Z,2.20
2023-03-23T07:00:11.055Z,2.40
2023-03-23T07:01:11.024Z,2.50
2023-03-23T07:02:11.050Z,2.60
2023-03-23T07:03:11.004Z,2.70
2023-03-23T07:04:11.086Z,2.20
2023-03-23T07:05:10.973Z,2.10
2023-03-23T07:06:10.983Z,1.90
2023-03-23T07:07:10.952Z,2.10
2023-03-23T07:08:10.924Z,2.20
2023-03-23T07:09:11.069Z,2.10
2023-03-23T07:10:10.964Z,2.10
2023-03-23T07:11:11.357Z,2.00
2023-03-23T07:12:10.906Z,2.10
2023-03-23T07:13:10.884Z,2.10
2023-03-23T07:14:10.897Z,2.10
2023-03-23T07:15:10.841Z,2.50
2023-03-23T07:16:10.824Z,2.20
2023-03-23T07:17:11.051Z,1.90
2023-03-23T07:18:10.828Z,2.10
2023-03-23T07:19:10.804Z,2.00
2023-03-23T07:20:10.894Z,2.00
2023-03-23T07:21:10.796Z,1.90
2023-03-23T07:22:10.755Z,2.10
2023-03-23T07:23:10.798Z,2.30
2023-03-23T07:24:10.780Z,2.00
2023-03-23T07:25:10.730Z,2.20
2023-03-23T07:26:10.706Z,1.80
2023-03-23T07:27:10.707Z,1.80
2023-03-23T07:28:10.691Z,2.50
2023-03-23T07:29:10.687Z,2.00
2023-03-23T07:30:10.674Z,1.90
2023-03-23T07:31:10.625Z,2.20
2023-03-23T07:32:10.634Z,2.40
2023-03-23T07:33:10.628Z,2.00
2023-03-23T07:34:10.678Z,2.00
2023-03-23T07:35:10.966Z,1.90
2023-03-23T07:36:10.634Z,2.00
2023-03-23T07:37:10.556Z,2.10
2023-03-23T07:38:10.543Z,2.20
2023-03-23T07:39:11.044Z,2.00
2023-03-23T07:40:10.529Z,2.00
2023-03-23T07:41:10.499Z,2.00
2023-03-23T07:42:10.491Z,2.10
2023-03-23T07:43:10.488Z,2.10
2023-03-23T07:44:10.473Z,1.90
2023-03-23T07:45:10.454Z,2.10
2023-03-23T07:46:10.426Z,2.00
2023-03-23T07:47:10.418Z,2.20
2023-03-23T07:48:20.966Z,2.10
2023-03-23T07:49:10.407Z,2.30
2023-03-23T07:50:10.368Z,2.00
2023-03-23T07:51:10.389Z,1.90
2023-03-23T07:52:10.368Z,2.30
2023-03-23T07:53:10.339Z,2.10
2023-03-23T07:54:10.347Z,1.80
2023-03-23T07:55:10.313Z,1.80
2023-03-23T07:56:10.308Z,2.40
2023-03-23T07:57:10.306Z,2.20
2023-03-23T07:58:10.284Z,2.00
2023-03-23T07:59:10.281Z,2.20
2023-03-23T08:00:10.239Z,2.40
2023-03-23T08:01:10.234Z,2.00
2023-03-23T08:02:10.237Z,2.10
2023-03-23T08:03:10.201Z,2.00
2023-03-23T08:04:10.236Z,2.00
2023-03-23T08:05:10.183Z,2.30
2023-03-23T08:06:10.179Z,1.90
2023-03-23T08:07:10.143Z,2.10
2023-03-23T08:08:10.158Z,2.30
2023-03-23T08:09:10.153Z,2.00
2023-03-23T08:10:10.141Z,1.80
2023-03-23T08:11:10.096Z,2.00
2023-03-23T08:12:10.087Z,2.10
2023-03-23T08:13:10.066Z,2.50
2023-03-23T08:14:10.076Z,2.30
2023-03-23T08:15:10.038Z,2.10
2023-03-23T08:16:10.040Z,2.10
2023-03-23T08:17:10.027Z,2.00
2023-03-23T08:18:09.993Z,2.20
2023-03-23T08:19:10.018Z,2.10
2023-03-23T08:20:09.992Z,2.20
2023-03-23T08:21:09.953Z,2.40
2023-03-23T08:22:09.947Z,2.30
2023-03-23T08:23:09.944Z,2.20
2023-03-23T08:24:09.966Z,2.30
2023-03-23T08:25:09.960Z,2.60
2023-03-23T08:26:09.905Z,2.30
2023-03-23T08:27:09.893Z,2.40
2023-03-23T08:28:09.874Z,2.10
2023-03-23T08:29:09.985Z,2.20
2023-03-23T08:30:09.862Z,2.30
2023-03-23T08:31:09.826Z,2.30
2023-03-23T08:32:09.813Z,2.50
2023-03-23T08:33:09.803Z,2.20
2023-03-23T08:34:09.975Z,2.50
2023-03-23T08:35:09.776Z,2.20
2023-03-23T08:36:09.788Z,2.50
2023-03-23T08:37:09.755Z,2.90
2023-03-23T08:38:09.740Z,2.30
2023-03-23T08:39:09.745Z,2.50
2023-03-23T08:40:09.777Z,2.50
2023-03-23T08:41:09.694Z,2.80
2023-03-23T08:42:09.712Z,2.50
2023-03-23T08:43:09.694Z,2.60
2023-03-23T08:44:09.666Z,2.30
2023-03-23T08:45:09.657Z,2.20
2023-03-23T08:46:09.638Z,2.50
2023-03-23T08:47:09.604Z,2.60
2023-03-23T08:48:09.617Z,2.30
2023-03-23T08:49:09.623Z,2.20
2023-03-23T08:50:09.578Z,2.40
2023-03-23T08:51:09.555Z,2.90
2023-03-23T08:52:09.548Z,2.30
2023-03-23T08:53:09.530Z,2.60
2023-03-23T08:54:09.535Z,2.50
2023-03-23T08:55:09.502Z,2.40
2023-03-23T08:56:09.503Z,2.60
2023-03-23T08:57:09.488Z,2.90
2023-03-23T08:58:09.478Z,2.60
2023-03-23T08:59:09.466Z,2.50
2023-03-23T09:00:09.442Z,2.90
2023-03-23T09:01:09.466Z,2.70
2023-03-23T09:02:09.409Z,3.60
2023-03-23T09:03:09.400Z,3.30
2023-03-23T09:04:09.412Z,3.40
2023-03-23T09:05:09.389Z,3.40
2023-03-23T09:06:09.375Z,3.80
2023-03-23T09:07:09.338Z,3.30
2023-03-23T09:08:09.330Z,3.60
2023-03-23T09:09:09.336Z,3.20
2023-03-23T09:10:09.326Z,3.20
2023-03-23T09:11:09.295Z,3.30
2023-03-23T09:12:09.275Z,3.00
2023-03-23T09:13:09.258Z,3.10
2023-03-23T09:14:09.293Z,3.50
2023-03-23T09:15:09.245Z,3.10
2023-03-23T09:16:09.248Z,2.90
2023-03-23T09:17:10.513Z,2.90
2023-03-23T09:18:09.209Z,3.20
2023-03-23T09:19:09.219Z,3.30
2023-03-23T09:20:09.169Z,2.80
2023-03-23T09:21:18.902Z,2.50
2023-03-23T09:22:09.167Z,3.00
2023-03-23T09:23:09.140Z,2.60
2023-03-23T09:24:09.168Z,2.50
2023-03-23T09:25:09.257Z,2.20
2023-03-23T09:26:09.103Z,2.50
2023-03-23T09:27:09.102Z,2.10
2023-03-23T09:28:09.093Z,2.30
2023-03-23T09:29:09.058Z,2.20
2023-03-23T09:30:09.042Z,2.10
2023-03-23T09:31:09.027Z,2.20
2023-03-23T09:32:09.052Z,2.30
2023-03-23T09:33:08.992Z,2.20
2023-03-23T09:34:09.022Z,2.10
2023-03-23T09:35:08.970Z,2.10
2023-03-23T09:36:08.993Z,2.20
2023-03-23T09:37:08.943Z,2.30
2023-03-23T09:38:08.946Z,2.00
2023-03-23T09:39:08.974Z,1.80
2023-03-23T09:40:08.925Z,2.10
2023-03-23T09:41:08.906Z,2.20
2023-03-23T09:42:08.909Z,1.90
2023-03-23T09:43:08.914Z,2.00
2023-03-23T09:44:08.898Z,2.10
2023-03-23T09:45:08.849Z,2.00
2023-03-23T09:46:08.840Z,1.90
2023-03-23T09:47:08.809Z,2.00
2023-03-23T09:48:08.837Z,2.00
2023-03-23T09:49:08.829Z,2.00
2023-03-23T09:50:08.783Z,2.20
2023-03-23T09:51:08.760Z,1.80
2023-03-23T09:52:08.736Z,1.80
2023-03-23T09:53:08.734Z,1.80
2023-03-23T09:54:08.786Z,2.30
2023-03-23T09:55:08.728Z,1.80
2023-03-23T09:56:08.689Z,1.80
2023-03-23T09:57:08.694Z,1.90
2023-03-23T09:58:08.667Z,2.30
2023-03-23T09:59:08.658Z,2.20
2023-03-23T10:00:08.699Z,2.40
2023-03-23T10:01:08.657Z,3.20
2023-03-23T10:02:08.600Z,3.20
2023-03-23T10:03:08.591Z,2.80
2023-03-23T10:04:08.591Z,3.30
2023-03-23T10:05:08.610Z,3.20
2023-03-23T10:06:08.574Z,3.50
2023-03-23T10:07:08.550Z,3.10
2023-03-23T10:08:08.544Z,3.10
2023-03-23T10:09:08.510Z,2.80
2023-03-23T10:10:08.539Z,2.70
2023-03-23T10:11:08.490Z,2.60
2023-03-23T10:12:08.492Z,2.20
2023-03-23T10:13:08.467Z,2.30
2023-03-23T10:14:08.477Z,2.20
2023-03-23T10:15:08.457Z,2.10
2023-03-23T10:16:08.446Z,1.90
2023-03-23T10:17:10.062Z,2.30
2023-03-23T10:18:08.391Z,1.80
2023-03-23T10:19:08.402Z,1.80
2023-03-23T10:20:08.402Z,1.90
2023-03-23T10:21:08.391Z,2.00
2023-03-23T10:22:08.358Z,1.90
2023-03-23T10:23:08.326Z,2.10
2023-03-23T10:24:08.343Z,2.10
2023-03-23T10:25:08.329Z,2.10
2023-03-23T10:26:08.321Z,2.10
2023-03-23T10:27:08.267Z,2.10
2023-03-23T10:28:08.300Z,2.40
2023-03-23T10:29:08.270Z,2.50
2023-03-23T10:30:08.257Z,2.60
2023-03-23T10:31:08.237Z,2.40
2023-03-23T10:32:08.212Z,2.20
2023-03-23T10:33:08.203Z,2.20
2023-03-23T10:34:08.187Z,2.80
2023-03-23T10:35:08.190Z,2.30
2023-03-23T10:36:08.164Z,2.20
2023-03-23T10:37:08.163Z,2.10
2023-03-23T10:38:08.130Z,2.20
2023-03-23T10:39:08.110Z,2.30
2023-03-23T10:40:08.126Z,2.60
2023-03-23T10:41:08.084Z,2.70
2023-03-23T10:42:08.083Z,2.40
2023-03-23T10:43:08.093Z,2.40
2023-03-23T10:44:08.050Z,2.40
2023-03-23T10:45:08.058Z,2.30
2023-03-23T10:46:08.079Z,2.10
2023-03-23T10:47:08.008Z,2.20
2023-03-23T10:48:08.011Z,2.10
2023-03-23T10:49:08.002Z,2.20
2023-03-23T10:50:08.008Z,2.00
2023-03-23T10:51:07.985Z,2.40
2023-03-23T10:52:07.977Z,2.30
2023-03-23T10:53:07.952Z,1.80
2023-03-23T10:54:09.155Z,2.00
2023-03-23T10:55:07.922Z,2.30
2023-03-23T10:56:07.940Z,2.00
2023-03-23T10:57:07.865Z,2.30
2023-03-23T10:58:07.865Z,2.20
2023-03-23T10:59:07.858Z,1.80
2023-03-23T11:00:07.898Z,2.00
2023-03-23T11:01:07.845Z,2.40
2023-03-23T11:02:08.556Z,2.30
2023-03-23T11:03:07.828Z,2.50
2023-03-23T11:04:07.787Z,2.70
2023-03-23T11:05:09.542Z,2.80
2023-03-23T11:06:07.800Z,2.60
2023-03-23T11:07:07.763Z,2.40
2023-03-23T11:08:07.739Z,2.60
2023-03-23T11:09:07.725Z,2.20
2023-03-23T11:10:07.713Z,2.30
2023-03-23T11:11:07.704Z,2.30
2023-03-23T11:12:07.729Z,2.20
2023-03-23T11:13:07.685Z,2.40
2023-03-23T11:14:07.687Z,2.20
2023-03-23T11:15:07.664Z,2.20
2023-03-23T11:16:07.655Z,2.10
2023-03-23T11:17:15.719Z,2.10
2023-03-23T11:18:07.604Z,2.40
2023-03-23T11:19:07.601Z,2.20
2023-03-23T11:20:07.603Z,2.20
2023-03-23T11:21:07.569Z,2.20
2023-03-23T11:22:07.575Z,2.00
2023-03-23T11:23:08.116Z,2.00
2023-03-23T11:24:10.009Z,1.80
2023-03-23T11:25:07.501Z,2.10
2023-03-23T11:26:07.500Z,1.70
2023-03-23T11:27:07.480Z,2.10
2023-03-23T11:28:07.477Z,1.80
2023-03-23T11:29:07.491Z,2.10
2023-03-23T11:30:07.462Z,1.80
2023-03-23T11:31:07.442Z,1.80
2023-03-23T11:32:07.412Z,2.00
2023-03-23T11:33:07.433Z,1.80
2023-03-23T11:34:07.404Z,1.80
2023-03-23T11:35:16.234Z,1.80
2023-03-23T11:36:07.431Z,1.80
2023-03-23T11:37:07.374Z,1.80
2023-03-23T11:38:07.331Z,1.70
2023-03-23T11:39:07.320Z,1.80
2023-03-23T11:40:07.421Z,2.10
2023-03-23T11:41:07.301Z,2.00
2023-03-23T11:42:09.543Z,2.20
2023-03-23T11:43:07.272Z,2.20
2023-03-23T11:44:07.290Z,2.10
2023-03-23T11:45:07.259Z,2.30
2023-03-23T11:46:07.228Z,2.10
2023-03-23T11:47:07.234Z,1.90
2023-03-23T11:48:07.237Z,2.10
2023-03-23T11:49:19.033Z,2.00
2023-03-23T11:50:07.173Z,2.00
2023-03-23T11:51:07.198Z,2.30
2023-03-23T11:52:07.180Z,2.30
2023-03-23T11:53:07.142Z,2.10
2023-03-23T11:54:07.164Z,2.40
2023-03-23T11:55:07.096Z,2.10
2023-03-23T11:56:07.146Z,2.20
2023-03-23T11:57:07.102Z,2.10
2023-03-23T11:58:07.070Z,1.90
2023-03-23T11:59:07.077Z,2.20
2023-03-23T12:00:07.064Z,1.90
2023-03-23T12:01:07.024Z,2.30
2023-03-23T12:02:16.905Z,1.90
2023-03-23T12:03:07.006Z,1.90
2023-03-23T12:04:06.988Z,2.00
2023-03-23T12:05:07.009Z,1.90
2023-03-23T12:06:06.975Z,2.00
2023-03-23T12:07:06.950Z,1.80
2023-03-23T12:08:06.954Z,2.10
2023-03-23T12:09:06.931Z,1.70
2023-03-23T12:10:06.901Z,1.70
2023-03-23T12:11:07.121Z,1.50
2023-03-23T12:12:06.878Z,1.60
2023-03-23T12:13:06.855Z,1.80
2023-03-23T12:14:06.878Z,1.50
2023-03-23T12:15:06.839Z,1.60
2023-03-23T12:16:06.840Z,1.60
2023-03-23T12:17:06.864Z,1.60
2023-03-23T12:18:06.793Z,1.60
2023-03-23T12:19:06.798Z,2.00
2023-03-23T12:20:06.822Z,1.50
2023-03-23T12:21:06.762Z,1.90
2023-03-23T12:22:06.738Z,1.40
2023-03-23T12:23:06.781Z,1.50
2023-03-23T12:24:07.662Z,1.40
2023-03-23T12:25:06.700Z,1.30
2023-03-23T12:26:06.725Z,1.40
2023-03-23T12:27:06.676Z,1.30
2023-03-23T12:28:06.665Z,1.50
2023-03-23T12:29:06.670Z,1.30
2023-03-23T12:30:06.644Z,1.60
2023-03-23T12:31:06.654Z,1.40
2023-03-23T12:32:06.610Z,1.40
2023-03-23T12:33:06.645Z,1.30
2023-03-23T12:34:06.601Z,1.40
2023-03-23T12:35:06.583Z,1.40
2023-03-23T12:36:06.576Z,1.40
2023-03-23T12:37:06.537Z,1.40
2023-03-23T12:38:06.584Z,1.40
2023-03-23T12:39:06.532Z,1.40
2023-03-23T12:40:06.491Z,1.40
2023-03-23T12:41:06.524Z,1.40
2023-03-23T12:42:06.489Z,1.20
2023-03-23T12:43:06.485Z,1.40
2023-03-23T12:44:06.482Z,1.20
2023-03-23T12:45:06.450Z,1.70
2023-03-23T12:46:06.464Z,1.40
2023-03-23T12:47:06.465Z,1.20
2023-03-23T12:48:06.406Z,1.40
2023-03-23T12:49:06.380Z,1.40
2023-03-23T12:50:06.402Z,1.30
2023-03-23T12:51:06.360Z,1.50
2023-03-23T12:52:06.332Z,1.30
2023-03-23T12:53:06.396Z,1.70
2023-03-23T12:54:06.317Z,1.30
2023-03-23T12:55:06.305Z,1.40
2023-03-23T12:56:06.362Z,1.30
2023-03-23T12:57:06.300Z,1.70
2023-03-23T12:58:06.336Z,1.20
2023-03-23T12:59:06.295Z,1.40
2023-03-23T13:00:06.237Z,2.10
2023-03-23T13:01:06.227Z,1.30
2023-03-23T13:02:06.252Z,1.70
2023-03-23T13:03:06.238Z,1.40
2023-03-23T13:04:06.191Z,1.30
2023-03-23T13:05:06.181Z,1.40
2023-03-23T13:06:06.169Z,1.40
2023-03-23T13:07:06.146Z,1.40
2023-03-23T13:08:06.141Z,1.60
2023-03-23T13:09:06.219Z,1.50
2023-03-23T13:10:06.258Z,2.00
2023-03-23T13:11:06.119Z,1.30
2023-03-23T13:12:06.086Z,1.40
2023-03-23T13:13:06.070Z,1.50
2023-03-23T13:14:06.044Z,1.40
2023-03-23T13:15:06.085Z,1.40
2023-03-23T13:16:06.072Z,1.50
2023-03-23T13:17:06.016Z,1.50
2023-03-23T13:18:06.019Z,1.30